Time;durP1;ratioP1;P1;durP2;ratioP2;P2;SDS_P1;SDS_P2;PMS_P1;PMS_P2;Temp;Humidity;BMP_temperature;BMP_pressure;BME280_temperature;BME280_humidity;BME280_pressure;Samples;Min_cycle;Max_cycle;Signal;HPM_P1;HPM_P2
2022/01/02 00:00:29;;;;;;;;;;;20.60;52.20;;;;;;4937134;29;19938;-62
2022/01/02 00:03:02;;;;;;;;;;;20.60;52.20;;;;;;4954456;28;20042;-63
2022/01/02 00:05:27;;;;;;;;;;;20.60;52.20;;;;;;4954130;29;19918;-62
2022/01/02 00:08:01;;;;;;;;;;;20.60;52.10;;;;;;4953230;29;19974;-63
2022/01/02 00:10:27;;;;;;;;;;;20.60;52.10;;;;;;4953975;28;19922;-63
2022/01/02 00:12:56;;;;;;;;;;;20.60;52.10;;;;;;4984465;28;20010;-62
2022/01/02 00:15:21;;;;;;;;;;;20.50;52.10;;;;;;4984595;28;19920;-62
2022/01/02 00:17:49;;;;;;;;;;;20.50;52.10;;;;;;4953743;29;19919;-62
2022/01/02 00:20:17;;;;;;;;;;;20.50;52.10;;;;;;4985102;28;19915;-62
2022/01/02 00:22:47;;;;;;;;;;;20.50;52.10;;;;;;4983434;28;19914;-62
2022/01/02 00:25:23;;;;;;;;;;;20.50;52.20;;;;;;4989944;28;19918;-62
2022/01/02 00:27:49;;;;;;;;;;;20.40;52.20;;;;;;4967376;28;19925;-62
2022/01/02 00:30:14;;;;;;;;;;;20.50;52.30;;;;;;4984883;28;19918;-63
2022/01/02 00:32:40;;;;;;;;;;;20.40;52.20;;;;;;4982410;28;19915;-62
2022/01/02 00:35:06;;;;;;;;;;;20.40;52.20;;;;;;4984626;28;19970;-62
2022/01/02 00:37:31;;;;;;;;;;;20.40;52.20;;;;;;4953094;29;19914;-62
2022/01/02 00:39:56;;;;;;;;;;;20.40;52.10;;;;;;4953576;29;20105;-64
2022/01/02 00:42:28;;;;;;;;;;;20.40;52.10;;;;;;4984075;28;20020;-63
2022/01/02 00:45:00;;;;;;;;;;;20.40;52.20;;;;;;4984807;28;19917;-62
2022/01/02 00:47:35;;;;;;;;;;;20.40;52.20;;;;;;4984298;28;20403;-62
2022/01/02 00:50:11;;;;;;;;;;;20.40;52.10;;;;;;4953418;28;19915;-62
2022/01/02 00:52:40;;;;;;;;;;;20.40;52.10;;;;;;4952462;28;19984;-62
2022/01/02 00:55:07;;;;;;;;;;;20.40;52.20;;;;;;4953839;29;19946;-63
2022/01/02 00:57:34;;;;;;;;;;;20.40;52.20;;;;;;4953098;29;20001;-62
2022/01/02 01:00:06;;;;;;;;;;;20.40;52.10;;;;;;4968747;28;19918;-62
2022/01/02 01:02:37;;;;;;;;;;;20.40;52.20;;;;;;4935004;29;19915;-62
2022/01/02 01:05:04;;;;;;;;;;;20.30;52.10;;;;;;4952572;29;19922;-62
2022/01/02 01:07:30;;;;;;;;;;;20.30;52.10;;;;;;4951372;29;20346;-62
2022/01/02 01:09:56;;;;;;;;;;;20.30;52.20;;;;;;4984382;28;19958;-62
2022/01/02 01:12:22;;;;;;;;;;;20.30;52.10;;;;;;4953352;29;19914;-62
2022/01/02 01:14:49;;;;;;;;;;;20.30;52.20;;;;;;4953554;29;19933;-62
2022/01/02 01:17:16;;;;;;;;;;;20.30;52.30;;;;;;4953026;29;21298;-62
2022/01/02 01:19:42;;;;;;;;;;;20.30;52.30;;;;;;4984544;28;19916;-62
2022/01/02 01:22:08;;;;;;;;;;;20.20;52.10;;;;;;4952608;28;19915;-63
2022/01/02 01:24:35;;;;;;;;;;;20.30;52.20;;;;;;4953706;29;19910;-62
2022/01/02 01:27:03;;;;;;;;;;;20.30;52.20;;;;;;4983974;28;19914;-62
2022/01/02 01:29:33;;;;;;;;;;;20.20;52.20;;;;;;4953810;28;20025;-62
2022/01/02 01:32:00;;;;;;;;;;;20.20;52.20;;;;;;4983115;28;19919;-63
2022/01/02 01:34:25;;;;;;;;;;;20.20;52.10;;;;;;4953459;29;19917;-62
2022/01/02 01:36:50;;;;;;;;;;;20.20;52.10;;;;;;4966771;28;20021;-62
2022/01/02 01:39:16;;;;;;;;;;;20.20;52.10;;;;;;4952207;29;19918;-63
2022/01/02 01:41:41;;;;;;;;;;;20.20;52.10;;;;;;4953165;29;19910;-62
2022/01/02 01:44:40;;;;;;;;;;;20.20;52.20;;;;;;4941352;29;19918;-63
2022/01/02 01:46:55;;;;;;;;;;;20.10;52.20;;;;;;4952667;29;19937;-62
2022/01/02 01:49:26;;;;;;;;;;;20.10;52.20;;;;;;4953403;29;19921;-62
2022/01/02 01:51:51;;;;;;;;;;;20.10;52.30;;;;;;4951917;28;19915;-62
2022/01/02 01:54:17;;;;;;;;;;;20.10;52.20;;;;;;4951863;29;20053;-62
2022/01/02 01:56:42;;;;;;;;;;;20.10;52.20;;;;;;4952498;29;19922;-63
2022/01/02 01:59:08;;;;;;;;;;;20.10;52.20;;;;;;4967841;28;20350;-62
2022/01/02 02:01:33;;;;;;;;;;;20.10;52.20;;;;;;4967835;28;19915;-62
2022/01/02 02:03:59;;;;;;;;;;;20.10;52.20;;;;;;4953927;28;19923;-62
2022/01/02 02:06:24;;;;;;;;;;;20.10;52.10;;;;;;4954380;28;20371;-62
2022/01/02 02:08:52;;;;;;;;;;;20.10;52.20;;;;;;4956347;29;19962;-62
2022/01/02 02:11:18;;;;;;;;;;;20.10;52.30;;;;;;4956535;28;19921;-62
2022/01/02 02:13:44;;;;;;;;;;;20.10;52.20;;;;;;4987299;28;19990;-63
2022/01/02 02:16:09;;;;;;;;;;;20.10;52.40;;;;;;4955466;28;20371;-62
2022/01/02 02:18:35;;;;;;;;;;;20.10;52.40;;;;;;4956226;29;20268;-62
2022/01/02 02:21:01;;;;;;;;;;;20.10;52.40;;;;;;4955436;29;20518;-63
2022/01/02 02:23:26;;;;;;;;;;;20.00;52.60;;;;;;4955652;29;19915;-62
2022/01/02 02:25:52;;;;;;;;;;;19.90;52.90;;;;;;4986976;28;20007;-63
2022/01/02 02:28:17;;;;;;;;;;;19.80;53.20;;;;;;4956040;28;19914;-63
2022/01/02 02:30:44;;;;;;;;;;;19.80;53.20;;;;;;4954909;29;19911;-63
2022/01/02 02:33:09;;;;;;;;;;;19.90;53.20;;;;;;4941962;28;19925;-62
2022/01/02 02:35:35;;;;;;;;;;;19.90;53.10;;;;;;4949491;29;20375;-62
2022/01/02 02:38:01;;;;;;;;;;;20.00;53.00;;;;;;4985569;28;19965;-62
2022/01/02 02:40:28;;;;;;;;;;;20.10;52.70;;;;;;4955876;29;19962;-62
2022/01/02 02:42:58;;;;;;;;;;;20.30;52.60;;;;;;4955676;28;19911;-62
2022/01/02 02:51:05;;;;;;;;;;;20.50;51.80;;;;;;4955078;29;20397;-62
2022/01/02 02:53:31;;;;;;;;;;;20.70;51.70;;;;;;4955242;29;20383;-63
2022/01/02 02:55:58;;;;;;;;;;;20.70;51.50;;;;;;4955384;29;19973;-62
2022/01/02 02:58:42;;;;;;;;;;;20.80;51.40;;;;;;4953886;29;19921;-62
2022/01/02 03:01:08;;;;;;;;;;;20.80;51.20;;;;;;4955266;28;19914;-63
2022/01/02 03:03:33;;;;;;;;;;;20.90;51.20;;;;;;4955154;29;19968;-63
2022/01/02 03:05:59;;;;;;;;;;;20.90;50.90;;;;;;4946367;28;19923;-63
2022/01/02 03:08:25;;;;;;;;;;;21.00;50.90;;;;;;4954813;29;19950;-63
2022/01/02 03:10:50;;;;;;;;;;;21.00;50.60;;;;;;4955174;29;19945;-63
2022/01/02 03:13:16;;;;;;;;;;;21.10;50.60;;;;;;4955183;29;19915;-63
2022/01/02 03:15:41;;;;;;;;;;;21.20;50.50;;;;;;4954043;28;20371;-62
2022/01/02 03:18:07;;;;;;;;;;;21.20;50.30;;;;;;4953302;29;20371;-63
2022/01/02 03:20:32;;;;;;;;;;;21.20;50.00;;;;;;4955231;29;20367;-63
2022/01/02 03:22:58;;;;;;;;;;;21.30;50.00;;;;;;4954268;29;19910;-63
2022/01/02 03:25:23;;;;;;;;;;;21.30;49.90;;;;;;4955243;29;19910;-63
2022/01/02 03:27:48;;;;;;;;;;;21.30;49.70;;;;;;4954476;29;19922;-63
2022/01/02 03:30:14;;;;;;;;;;;21.30;49.70;;;;;;4955656;29;19914;-63
2022/01/02 03:32:39;;;;;;;;;;;21.40;49.70;;;;;;4954215;29;19962;-62
2022/01/02 03:35:05;;;;;;;;;;;21.40;49.60;;;;;;4953694;29;20353;-63
2022/01/02 03:37:33;;;;;;;;;;;21.40;49.60;;;;;;4985029;28;19971;-63
2022/01/02 03:39:58;;;;;;;;;;;21.40;49.60;;;;;;4954938;29;19962;-62
2022/01/02 03:42:24;;;;;;;;;;;21.40;49.50;;;;;;4982823;28;19985;-63
2022/01/02 03:44:49;;;;;;;;;;;21.40;49.40;;;;;;4935749;29;19914;-63
2022/01/02 03:47:15;;;;;;;;;;;21.40;49.50;;;;;;4976532;28;19921;-63
2022/01/02 03:49:40;;;;;;;;;;;21.40;49.50;;;;;;4985477;28;19961;-63
2022/01/02 03:52:06;;;;;;;;;;;21.40;49.50;;;;;;4953551;29;19977;-63
2022/01/02 03:54:31;;;;;;;;;;;21.40;49.40;;;;;;4954648;29;19966;-63
2022/01/02 03:56:57;;;;;;;;;;;21.40;49.50;;;;;;4954009;29;19969;-63
2022/01/02 03:59:22;;;;;;;;;;;21.50;49.50;;;;;;4954329;29;19925;-62
2022/01/02 04:01:48;;;;;;;;;;;21.40;49.40;;;;;;4954549;29;19972;-63
2022/01/02 04:04:13;;;;;;;;;;;21.50;49.50;;;;;;4954320;29;20025;-63
2022/01/02 04:06:39;;;;;;;;;;;21.50;49.50;;;;;;4952420;28;20259;-63
2022/01/02 04:09:04;;;;;;;;;;;21.50;49.50;;;;;;4954031;29;19929;-63
2022/01/02 04:11:29;;;;;;;;;;;21.50;49.50;;;;;;4954117;29;19940;-63
2022/01/02 04:13:55;;;;;;;;;;;21.50;49.60;;;;;;4953980;29;19910;-62
2022/01/02 04:16:20;;;;;;;;;;;21.50;49.50;;;;;;4953969;29;19914;-63
2022/01/02 04:18:46;;;;;;;;;;;21.50;49.50;;;;;;4954269;29;20383;-63
2022/01/02 04:21:11;;;;;;;;;;;21.40;49.40;;;;;;4953726;29;19990;-62
2022/01/02 04:23:38;;;;;;;;;;;21.40;49.40;;;;;;4953300;29;19911;-63
2022/01/02 04:26:06;;;;;;;;;;;21.40;49.50;;;;;;4953541;28;19914;-63
2022/01/02 04:28:31;;;;;;;;;;;21.40;49.60;;;;;;4953646;29;19915;-62
2022/01/02 04:30:57;;;;;;;;;;;21.30;49.70;;;;;;4953957;29;19965;-63
2022/01/02 04:33:22;;;;;;;;;;;21.20;49.70;;;;;;4940207;29;19922;-62
2022/01/02 04:35:47;;;;;;;;;;;21.20;49.80;;;;;;4953936;29;19911;-63
2022/01/02 04:38:14;;;;;;;;;;;21.20;49.90;;;;;;4952919;29;20021;-63
2022/01/02 04:40:40;;;;;;;;;;;21.20;50.00;;;;;;4953722;29;19918;-63
2022/01/02 04:43:05;;;;;;;;;;;21.20;50.00;;;;;;4953546;28;20394;-63
2022/01/02 04:45:31;;;;;;;;;;;21.20;49.90;;;;;;4984966;28;19927;-62
2022/01/02 04:47:56;;;;;;;;;;;21.20;49.70;;;;;;4953233;29;19966;-63
2022/01/02 04:50:22;;;;;;;;;;;21.30;49.70;;;;;;4953506;29;19929;-63
2022/01/02 04:52:47;;;;;;;;;;;21.30;49.70;;;;;;4952583;29;20335;-63
2022/01/02 04:55:12;;;;;;;;;;;21.30;49.60;;;;;;4953691;29;19925;-63
2022/01/02 04:57:38;;;;;;;;;;;21.40;49.60;;;;;;4952749;29;19922;-63
2022/01/02 05:00:05;;;;;;;;;;;21.40;49.60;;;;;;4942357;29;20001;-62
2022/01/02 05:02:30;;;;;;;;;;;21.30;49.40;;;;;;4953095;28;19914;-62
2022/01/02 05:04:55;;;;;;;;;;;21.40;49.40;;;;;;4951798;29;19915;-63
2022/01/02 05:07:21;;;;;;;;;;;21.40;49.40;;;;;;4952561;28;19919;-62
2022/01/02 05:09:46;;;;;;;;;;;21.40;49.30;;;;;;4953592;28;20008;-63
2022/01/02 05:12:12;;;;;;;;;;;21.40;49.30;;;;;;4984036;28;20009;-63
2022/01/02 05:14:37;;;;;;;;;;;21.40;49.40;;;;;;4953474;29;19914;-63
2022/01/02 05:17:03;;;;;;;;;;;21.40;49.40;;;;;;4953216;29;20031;-63
2022/01/02 05:19:28;;;;;;;;;;;21.40;49.40;;;;;;4952909;29;20149;-63
2022/01/02 05:21:54;;;;;;;;;;;21.40;49.30;;;;;;4952297;29;20416;-62
2022/01/02 05:24:19;;;;;;;;;;;21.40;49.30;;;;;;4953789;29;20275;-63
2022/01/02 05:26:44;;;;;;;;;;;21.40;49.40;;;;;;4952758;29;19914;-63
2022/01/02 05:29:10;;;;;;;;;;;21.40;49.40;;;;;;4953452;29;19915;-63
2022/01/02 05:31:35;;;;;;;;;;;21.50;49.50;;;;;;4953110;29;19922;-62
2022/01/02 05:34:01;;;;;;;;;;;21.50;49.50;;;;;;4953405;29;20295;-62
2022/01/02 05:36:26;;;;;;;;;;;21.40;49.30;;;;;;4952208;29;20068;-62
2022/01/02 05:38:52;;;;;;;;;;;21.40;49.40;;;;;;4954420;28;19986;-63
2022/01/02 05:41:18;;;;;;;;;;;21.40;49.40;;;;;;4956767;29;19918;-62
2022/01/02 05:43:43;;;;;;;;;;;21.40;49.40;;;;;;4988176;28;19911;-63
2022/01/02 05:46:09;;;;;;;;;;;21.40;49.40;;;;;;4956872;29;19918;-62
2022/01/02 05:48:36;;;;;;;;;;;21.40;49.50;;;;;;4987633;28;20402;-63
2022/01/02 05:51:01;;;;;;;;;;;21.40;49.40;;;;;;4956016;29;19922;-63
2022/01/02 05:53:27;;;;;;;;;;;21.40;49.40;;;;;;4956432;29;19914;-62
2022/01/02 05:55:52;;;;;;;;;;;21.40;49.40;;;;;;4953728;29;20313;-63
2022/01/02 05:58:18;;;;;;;;;;;21.40;49.30;;;;;;4956508;29;20016;-62
2022/01/02 06:00:43;;;;;;;;;;;21.50;49.40;;;;;;4956856;29;20257;-63
2022/01/02 06:03:09;;;;;;;;;;;21.50;49.30;;;;;;4956304;29;19928;-63
2022/01/02 06:05:34;;;;;;;;;;;21.50;49.30;;;;;;4955781;29;20012;-63
2022/01/02 06:08:00;;;;;;;;;;;21.50;49.30;;;;;;4954689;28;20006;-63
2022/01/02 06:10:25;;;;;;;;;;;21.50;49.30;;;;;;4956464;29;19923;-63
2022/01/02 06:12:51;;;;;;;;;;;21.50;49.50;;;;;;4956550;28;19962;-63
2022/01/02 06:15:16;;;;;;;;;;;21.50;49.40;;;;;;4970702;28;19918;-63
2022/01/02 06:17:41;;;;;;;;;;;21.40;49.30;;;;;;4956090;28;19958;-63
2022/01/02 06:20:07;;;;;;;;;;;21.40;49.30;;;;;;4955899;29;19958;-62
2022/01/02 06:22:32;;;;;;;;;;;21.40;49.40;;;;;;4954836;29;19915;-63
2022/01/02 06:24:58;;;;;;;;;;;21.40;49.40;;;;;;4970854;28;19915;-63
2022/01/02 06:27:24;;;;;;;;;;;21.40;49.60;;;;;;4955909;29;19910;-63
2022/01/02 06:29:49;;;;;;;;;;;21.40;49.70;;;;;;4956304;29;19918;-63
2022/01/02 06:32:15;;;;;;;;;;;21.30;49.70;;;;;;4948038;29;19921;-63
2022/01/02 06:34:40;;;;;;;;;;;21.30;49.80;;;;;;4986458;28;19915;-63
2022/01/02 06:37:06;;;;;;;;;;;21.30;49.90;;;;;;4954868;29;19915;-62
2022/01/02 06:39:31;;;;;;;;;;;21.30;50.00;;;;;;4955792;29;19978;-63
2022/01/02 06:41:56;;;;;;;;;;;21.30;50.10;;;;;;4955773;29;20399;-63
2022/01/02 06:44:22;;;;;;;;;;;21.30;50.20;;;;;;4955916;29;19911;-63
2022/01/02 06:46:47;;;;;;;;;;;21.20;50.20;;;;;;4953360;29;19950;-63
2022/01/02 06:49:13;;;;;;;;;;;21.30;50.30;;;;;;4955451;28;19922;-63
2022/01/02 06:51:38;;;;;;;;;;;21.20;50.30;;;;;;4954903;29;20367;-62
2022/01/02 06:54:04;;;;;;;;;;;21.30;50.40;;;;;;4986901;28;19919;-62
2022/01/02 06:56:29;;;;;;;;;;;21.30;50.40;;;;;;4955291;29;19941;-63
2022/01/02 06:58:55;;;;;;;;;;;21.30;50.30;;;;;;4955262;29;19918;-63
2022/01/02 07:01:20;;;;;;;;;;;21.30;50.30;;;;;;4955033;29;20001;-63
2022/01/02 07:03:45;;;;;;;;;;;21.30;50.40;;;;;;4986162;28;19914;-62
2022/01/02 07:06:11;;;;;;;;;;;21.30;50.40;;;;;;4951580;29;19925;-63
2022/01/02 07:08:36;;;;;;;;;;;21.30;50.40;;;;;;4954398;29;20343;-62
2022/01/02 07:11:02;;;;;;;;;;;21.30;50.40;;;;;;4955417;29;20350;-63
2022/01/02 07:13:27;;;;;;;;;;;21.30;50.30;;;;;;4986247;28;19910;-62
2022/01/02 07:15:53;;;;;;;;;;;21.30;50.30;;;;;;4954912;29;19921;-63
2022/01/02 07:18:18;;;;;;;;;;;21.30;50.30;;;;;;4985955;28;19965;-63
2022/01/02 07:20:44;;;;;;;;;;;21.30;50.30;;;;;;4955197;29;19918;-63
2022/01/02 07:23:09;;;;;;;;;;;21.30;50.20;;;;;;4954447;29;19973;-62
2022/01/02 07:25:35;;;;;;;;;;;21.30;50.20;;;;;;4986271;28;20005;-63
2022/01/02 07:28:00;;;;;;;;;;;21.30;50.20;;;;;;4954866;29;19910;-63
2022/01/02 07:30:25;;;;;;;;;;;21.40;50.20;;;;;;4954336;29;20016;-63
2022/01/02 07:32:51;;;;;;;;;;;21.40;50.20;;;;;;4954900;29;19910;-63
2022/01/02 07:35:16;;;;;;;;;;;21.40;50.30;;;;;;4954929;29;19914;-63
2022/01/02 07:37:42;;;;;;;;;;;21.40;50.30;;;;;;4953968;28;19915;-63
2022/01/02 07:40:07;;;;;;;;;;;21.30;50.30;;;;;;4953806;29;19918;-63
2022/01/02 07:42:33;;;;;;;;;;;21.30;50.30;;;;;;4954849;28;19981;-63
2022/01/02 07:44:58;;;;;;;;;;;21.30;50.30;;;;;;4954131;29;19968;-63
2022/01/02 07:47:24;;;;;;;;;;;21.30;50.30;;;;;;4954384;28;20405;-63
2022/01/02 07:49:49;;;;;;;;;;;21.30;50.40;;;;;;4985888;28;20401;-63
2022/01/02 07:52:15;;;;;;;;;;;21.30;50.50;;;;;;4953469;29;20395;-63
2022/01/02 07:54:40;;;;;;;;;;;21.30;50.50;;;;;;4950092;29;20272;-62
2022/01/02 07:57:06;;;;;;;;;;;21.30;50.60;;;;;;4972565;28;19918;-63
2022/01/02 07:59:31;;;;;;;;;;;21.30;50.50;;;;;;4954458;29;19919;-63
2022/01/02 08:01:57;;;;;;;;;;;21.30;50.50;;;;;;4983866;28;19958;-63
2022/01/02 08:04:22;;;;;;;;;;;21.30;50.50;;;;;;4953486;28;20001;-63
2022/01/02 08:06:48;;;;;;;;;;;21.30;50.60;;;;;;4952915;28;19921;-62
2022/01/02 08:09:13;;;;;;;;;;;21.30;50.60;;;;;;4954123;29;19926;-63
2022/01/02 08:11:39;;;;;;;;;;;21.30;50.60;;;;;;4954183;28;20376;-63
2022/01/02 08:14:06;;;;;;;;;;;21.30;50.50;;;;;;4953793;29;19972;-62
2022/01/02 08:16:31;;;;;;;;;;;21.30;50.50;;;;;;4954156;28;19914;-62
2022/01/02 08:18:56;;;;;;;;;;;21.30;50.50;;;;;;4953998;29;19918;-63
2022/01/02 08:21:22;;;;;;;;;;;21.30;50.40;;;;;;4952824;29;19914;-63
2022/01/02 08:23:47;;;;;;;;;;;21.30;50.30;;;;;;4953890;29;19950;-62
2022/01/02 08:26:13;;;;;;;;;;;21.30;50.30;;;;;;4953886;28;20267;-63
2022/01/02 08:28:38;;;;;;;;;;;21.30;50.30;;;;;;4953374;29;19921;-63
2022/01/02 08:31:04;;;;;;;;;;;21.30;50.30;;;;;;4953742;29;19925;-63
2022/01/02 08:33:29;;;;;;;;;;;21.40;50.30;;;;;;4952411;29;19923;-62
2022/01/02 08:35:55;;;;;;;;;;;21.40;50.30;;;;;;4953824;29;19958;-62
2022/01/02 08:38:20;;;;;;;;;;;21.30;50.30;;;;;;4983547;28;19968;-63
2022/01/02 08:40:45;;;;;;;;;;;21.30;50.40;;;;;;4954006;29;20430;-62
2022/01/02 08:43:11;;;;;;;;;;;21.30;50.50;;;;;;4953513;29;20415;-62
2022/01/02 08:45:37;;;;;;;;;;;21.30;50.40;;;;;;4953666;28;19914;-62
2022/01/02 08:48:03;;;;;;;;;;;21.30;50.50;;;;;;4952461;29;19910;-62
2022/01/02 08:50:28;;;;;;;;;;;21.30;50.50;;;;;;4953613;29;20310;-63
2022/01/02 08:52:54;;;;;;;;;;;21.30;50.50;;;;;;4952886;29;19915;-63
2022/01/02 08:55:19;;;;;;;;;;;21.30;50.50;;;;;;4953397;29;19930;-63
2022/01/02 08:57:45;;;;;;;;;;;21.30;50.50;;;;;;4953056;29;20240;-63
2022/01/02 09:00:11;;;;;;;;;;;21.30;50.40;;;;;;4953710;29;19911;-62
2022/01/02 09:02:36;;;;;;;;;;;21.30;50.40;;;;;;4953630;28;20016;-63
2022/01/02 09:05:02;;;;;;;;;;;21.30;50.30;;;;;;4983631;28;20324;-63
2022/01/02 09:07:27;;;;;;;;;;;21.30;50.30;;;;;;4952572;28;19911;-63
2022/01/02 09:09:53;;;;;;;;;;;21.30;50.30;;;;;;4953028;29;19928;-62
2022/01/02 09:12:18;;;;;;;;;;;21.30;50.30;;;;;;4942819;29;19970;-62
2022/01/02 09:14:44;;;;;;;;;;;21.30;50.30;;;;;;4954644;29;19970;-63
2022/01/02 09:17:09;;;;;;;;;;;21.30;50.30;;;;;;4957010;29;20442;-62
2022/01/02 09:19:35;;;;;;;;;;;21.30;50.40;;;;;;4957233;29;19914;-62
2022/01/02 09:22:00;;;;;;;;;;;21.30;50.50;;;;;;4949906;29;20363;-63
2022/01/02 09:24:26;;;;;;;;;;;21.30;51.20;;;;;;4957420;29;19910;-62
2022/01/02 09:26:51;;;;;;;;;;;21.30;50.50;;;;;;4955673;29;19950;-62
2022/01/02 09:29:17;;;;;;;;;;;21.30;50.40;;;;;;4957263;29;19921;-63
2022/01/02 09:31:42;;;;;;;;;;;21.30;50.30;;;;;;4955418;29;19957;-62
2022/01/02 09:34:07;;;;;;;;;;;21.30;50.30;;;;;;4957000;29;20013;-62
2022/01/02 09:36:33;;;;;;;;;;;21.30;50.30;;;;;;4987181;28;20371;-62
2022/01/02 09:38:58;;;;;;;;;;;21.40;50.40;;;;;;4956502;28;19984;-63
2022/01/02 09:41:24;;;;;;;;;;;21.40;50.40;;;;;;4955745;29;19925;-62
2022/01/02 09:43:50;;;;;;;;;;;21.30;50.30;;;;;;4956433;29;19925;-62
2022/01/02 09:46:22;;;;;;;;;;;21.30;50.50;;;;;;4952167;29;20439;-63
2022/01/02 09:48:48;;;;;;;;;;;21.30;50.50;;;;;;4954678;29;19911;-63
2022/01/02 09:51:14;;;;;;;;;;;21.30;50.40;;;;;;4956331;29;20417;-62
2022/01/02 09:53:39;;;;;;;;;;;21.30;50.50;;;;;;4956437;29;20002;-62
2022/01/02 09:56:05;;;;;;;;;;;21.30;50.50;;;;;;4951346;28;19915;-62
2022/01/02 09:58:33;;;;;;;;;;;21.30;50.50;;;;;;4956548;28;20442;-63
2022/01/02 10:00:58;;;;;;;;;;;21.30;50.60;;;;;;4956059;29;19910;-63
2022/01/02 10:03:24;;;;;;;;;;;21.30;50.60;;;;;;4954243;29;19974;-63
2022/01/02 10:05:50;;;;;;;;;;;21.30;50.50;;;;;;4955286;28;19922;-63
2022/01/02 10:08:22;;;;;;;;;;;21.30;50.50;;;;;;4950052;29;19949;-63
2022/01/02 10:10:48;;;;;;;;;;;21.30;50.60;;;;;;4955941;28;19929;-63
2022/01/02 10:13:13;;;;;;;;;;;21.30;50.50;;;;;;4970753;28;19914;-62
2022/01/02 10:15:38;;;;;;;;;;;21.30;50.50;;;;;;4956597;29;19910;-63
2022/01/02 10:18:05;;;;;;;;;;;21.30;50.60;;;;;;4955982;29;19970;-63
2022/01/02 10:20:31;;;;;;;;;;;21.30;50.50;;;;;;4952446;28;19918;-63
2022/01/02 10:23:16;;;;;;;;;;;21.30;50.60;;;;;;4954061;29;20014;-63
2022/01/02 10:25:55;;;;;;;;;;;21.30;50.70;;;;;;4955624;28;20327;-63
2022/01/02 10:28:28;;;;;;;;;;;21.30;50.80;;;;;;4956117;28;20013;-62
2022/01/02 10:30:57;;;;;;;;;;;21.30;51.40;;;;;;4942522;28;20375;-63
2022/01/02 10:33:23;;;;;;;;;;;21.20;50.80;;;;;;4951383;29;19911;-63
2022/01/02 10:35:55;;;;;;;;;;;21.20;50.90;;;;;;4937118;29;19911;-63
2022/01/02 10:38:21;;;;;;;;;;;21.20;50.90;;;;;;4953351;29;19914;-62
2022/01/02 10:40:47;;;;;;;;;;;21.20;51.10;;;;;;4955659;29;19966;-62
2022/01/02 10:43:33;;;;;;;;;;;21.20;51.20;;;;;;4956160;28;19916;-62
2022/01/02 10:46:06;;;;;;;;;;;21.10;51.10;;;;;;4992749;28;19910;-62
2022/01/02 10:48:33;;;;;;;;;;;21.20;51.20;;;;;;4986644;28;19965;-62
2022/01/02 10:51:03;;;;;;;;;;;21.20;51.10;;;;;;4969990;28;19911;-62
2022/01/02 10:53:29;;;;;;;;;;;21.20;51.00;;;;;;4954125;28;19918;-62
2022/01/02 10:55:54;;;;;;;;;;;21.20;50.90;;;;;;4954744;29;19919;-63
2022/01/02 10:58:20;;;;;;;;;;;21.20;50.90;;;;;;4950641;28;20294;-62
2022/01/02 11:00:45;;;;;;;;;;;21.20;50.90;;;;;;4954311;29;19984;-63
2022/01/02 11:03:12;;;;;;;;;;;21.20;50.80;;;;;;4954596;29;20009;-62
2022/01/02 11:05:39;;;;;;;;;;;21.30;50.80;;;;;;4954987;28;20005;-62
2022/01/02 11:08:05;;;;;;;;;;;21.30;50.80;;;;;;4984505;28;19915;-63
2022/01/02 11:10:36;;;;;;;;;;;21.30;50.80;;;;;;4954834;28;19926;-62
2022/01/02 11:13:03;;;;;;;;;;;21.30;50.80;;;;;;4983870;28;19960;-63
2022/01/02 11:15:29;;;;;;;;;;;21.30;50.70;;;;;;4958178;28;19914;-62
2022/01/02 11:17:54;;;;;;;;;;;21.30;50.70;;;;;;4954347;29;20398;-62
2022/01/02 11:20:20;;;;;;;;;;;21.30;50.80;;;;;;4985678;28;19922;-62
2022/01/02 11:22:52;;;;;;;;;;;21.30;50.70;;;;;;4943709;29;20291;-63
2022/01/02 11:25:23;;;;;;;;;;;21.30;50.70;;;;;;4954593;29;19961;-63
2022/01/02 11:27:53;;;;;;;;;;;21.30;50.60;;;;;;4953793;29;19914;-63
2022/01/02 11:30:30;;;;;;;;;;;21.30;50.80;;;;;;4954571;29;19915;-63
2022/01/02 11:32:59;;;;;;;;;;;21.30;50.70;;;;;;4954596;29;19936;-62
2022/01/02 11:35:30;;;;;;;;;;;21.30;50.80;;;;;;4955073;28;19914;-63
2022/01/02 11:38:01;;;;;;;;;;;21.30;50.80;;;;;;4982757;28;19926;-63
2022/01/02 11:40:46;;;;;;;;;;;21.30;50.80;;;;;;4960830;28;20394;-63
2022/01/02 11:43:30;;;;;;;;;;;21.30;50.80;;;;;;4985445;28;20491;-62
2022/01/02 11:46:10;;;;;;;;;;;21.30;50.80;;;;;;4954381;28;19958;-62
2022/01/02 11:48:35;;;;;;;;;;;21.30;50.80;;;;;;4968957;28;19961;-62
2022/01/02 11:51:00;;;;;;;;;;;21.30;50.80;;;;;;4953829;29;20028;-62
2022/01/02 11:53:28;;;;;;;;;;;21.30;50.80;;;;;;4961214;28;19937;-63
2022/01/02 11:55:53;;;;;;;;;;;21.30;50.80;;;;;;4966478;28;19918;-62
2022/01/02 11:58:37;;;;;;;;;;;21.30;50.80;;;;;;4953839;29;19930;-63
2022/01/02 12:01:03;;;;;;;;;;;21.30;50.80;;;;;;4953008;28;19915;-63
2022/01/02 12:03:40;;;;;;;;;;;21.30;50.80;;;;;;4952169;29;19961;-63
2022/01/02 12:06:20;;;;;;;;;;;21.30;50.80;;;;;;4951679;28;19919;-63
2022/01/02 12:08:46;;;;;;;;;;;21.20;50.80;;;;;;4984461;28;20299;-63
2022/01/02 12:11:41;;;;;;;;;;;21.20;51.00;;;;;;4945039;29;19918;-62
2022/01/02 12:14:10;;;;;;;;;;;21.20;51.00;;;;;;4941511;29;19915;-62
2022/01/02 12:16:39;;;;;;;;;;;21.20;51.00;;;;;;4953743;29;19940;-62
2022/01/02 12:19:05;;;;;;;;;;;21.20;50.90;;;;;;4952340;29;19929;-62
2022/01/02 12:21:32;;;;;;;;;;;21.20;50.80;;;;;;4953031;29;19915;-63
2022/01/02 12:23:57;;;;;;;;;;;21.30;50.90;;;;;;4951060;28;19918;-62
2022/01/02 12:26:30;;;;;;;;;;;21.30;50.90;;;;;;4953787;29;19969;-62
2022/01/02 12:28:57;;;;;;;;;;;21.30;51.50;;;;;;4947357;28;19914;-62
2022/01/02 12:31:25;;;;;;;;;;;21.20;50.90;;;;;;4977960;28;19926;-62
2022/01/02 12:33:50;;;;;;;;;;;21.30;51.00;;;;;;4946772;28;19918;-63
2022/01/02 12:36:16;;;;;;;;;;;21.20;51.30;;;;;;4951390;29;20438;-62
2022/01/02 12:38:51;;;;;;;;;;;21.20;51.20;;;;;;4983848;28;19922;-63
2022/01/02 12:41:18;;;;;;;;;;;21.20;51.00;;;;;;4967765;28;19914;-63
2022/01/02 12:43:54;;;;;;;;;;;21.20;51.00;;;;;;4952915;28;19926;-63
2022/01/02 12:46:34;;;;;;;;;;;21.20;51.10;;;;;;4978361;28;19914;-62
2022/01/02 12:49:00;;;;;;;;;;;21.30;51.10;;;;;;4952627;28;19923;-62
2022/01/02 12:51:30;;;;;;;;;;;21.30;51.00;;;;;;4983636;28;20272;-62
2022/01/02 12:54:14;;;;;;;;;;;21.30;51.00;;;;;;4952736;28;19965;-62
2022/01/02 12:56:40;;;;;;;;;;;21.30;51.00;;;;;;4984204;28;19945;-63
2022/01/02 12:59:12;;;;;;;;;;;21.30;51.10;;;;;;4952908;29;20387;-63
2022/01/02 13:01:56;;;;;;;;;;;21.30;51.10;;;;;;4983249;28;19915;-62
2022/01/02 13:04:23;;;;;;;;;;;21.20;51.10;;;;;;4953310;28;19914;-62
2022/01/02 13:06:52;;;;;;;;;;;21.20;51.00;;;;;;4952445;29;19918;-62
2022/01/02 13:09:24;;;;;;;;;;;21.20;51.00;;;;;;4953276;29;20504;-62
2022/01/02 13:11:50;;;;;;;;;;;21.20;50.90;;;;;;4953015;28;19922;-63
2022/01/02 13:14:31;;;;;;;;;;;21.20;50.90;;;;;;4953474;29;20342;-62
2022/01/02 13:16:57;;;;;;;;;;;21.30;51.00;;;;;;4952108;29;20691;-62
2022/01/02 13:19:23;;;;;;;;;;;21.30;50.90;;;;;;4951001;29;20330;-62
2022/01/02 13:21:48;;;;;;;;;;;21.30;51.00;;;;;;4978313;28;19919;-62
2022/01/02 13:24:23;;;;;;;;;;;21.30;50.90;;;;;;4952518;29;20009;-62
2022/01/02 13:26:49;;;;;;;;;;;21.30;50.90;;;;;;4983632;28;19914;-62
2022/01/02 13:29:22;;;;;;;;;;;21.30;50.90;;;;;;4967518;28;20379;-62
2022/01/02 13:31:48;;;;;;;;;;;21.30;51.00;;;;;;4952060;28;19923;-62
2022/01/02 13:34:26;;;;;;;;;;;21.30;51.10;;;;;;4952262;29;20291;-62
2022/01/02 13:36:55;;;;;;;;;;;21.30;51.10;;;;;;4949889;28;19923;-63
2022/01/02 13:39:36;;;;;;;;;;;21.30;51.10;;;;;;4983472;28;20371;-63
2022/01/02 13:42:01;;;;;;;;;;;21.30;51.20;;;;;;4938733;28;19914;-62
2022/01/02 13:44:34;;;;;;;;;;;21.30;51.20;;;;;;4946500;29;19980;-62
2022/01/02 13:46:59;;;;;;;;;;;21.30;51.30;;;;;;4983704;28;20009;-62
2022/01/02 13:49:40;;;;;;;;;;;21.30;51.30;;;;;;4952702;29;20054;-63
2022/01/02 13:52:05;;;;;;;;;;;21.30;51.20;;;;;;4952053;29;20010;-62
2022/01/02 13:54:31;;;;;;;;;;;21.30;51.30;;;;;;4953141;29;19993;-62
2022/01/02 13:56:57;;;;;;;;;;;21.30;51.40;;;;;;4952409;29;19911;-63
2022/01/02 13:59:25;;;;;;;;;;;21.30;51.50;;;;;;4952518;28;19918;-62
2022/01/02 14:01:51;;;;;;;;;;;21.30;51.50;;;;;;4955951;29;19952;-63
2022/01/02 14:04:19;;;;;;;;;;;21.30;51.70;;;;;;4970944;28;19914;-62
2022/01/02 14:06:45;;;;;;;;;;;21.30;51.60;;;;;;4955589;29;19993;-63
2022/01/02 14:09:11;;;;;;;;;;;21.30;51.60;;;;;;4954905;29;19959;-62
2022/01/02 14:11:38;;;;;;;;;;;21.40;51.70;;;;;;4983464;28;20017;-62
2022/01/02 14:14:13;;;;;;;;;;;21.30;51.60;;;;;;4956020;28;19914;-62
2022/01/02 14:17:13;;;;;;;;;;;21.30;51.70;;;;;;4954119;28;20323;-62
2022/01/02 14:19:39;;;;;;;;;;;21.30;51.80;;;;;;4955704;29;20363;-63
2022/01/02 14:22:05;;;;;;;;;;;21.30;51.70;;;;;;4955084;28;19962;-62